Time;durP1;ratioP1;P1;durP2;ratioP2;P2;SDS_P1;SDS_P2;PMS_P1;PMS_P2;Temp;Humidity;BMP_temperature;BMP_pressure;BME280_temperature;BME280_humidity;BME280_pressure;Samples;Min_cycle;Max_cycle;Signal;HPM_P1;HPM_P2
2021/05/18 00:01:26;;;;;;;0.17;0.10;;;9.40;99.90;;;;;;5024703;28;20604;-74
2021/05/18 00:03:51;;;;;;;0.63;0.50;;;9.40;99.90;;;;;;5026376;28;20573;-74
2021/05/18 00:06:17;;;;;;;0.52;0.10;;;9.40;99.90;;;;;;5025693;28;20081;-74
2021/05/18 00:14:13;;;;;;;0.55;0.20;;;9.60;99.90;;;;;;5025143;28;20214;-74
2021/05/18 00:16:39;;;;;;;0.77;0.10;;;9.60;99.90;;;;;;5025832;28;20184;-74
2021/05/18 00:19:05;;;;;;;1.23;0.40;;;9.60;99.90;;;;;;5026403;28;20149;-74
2021/05/18 00:21:31;;;;;;;0.40;0.15;;;9.60;99.90;;;;;;5028366;28;20098;-74
2021/05/18 00:23:57;;;;;;;0.28;0.10;;;9.70;99.90;;;;;;5027893;28;20088;-74
2021/05/18 00:26:23;;;;;;;0.40;0.20;;;9.70;99.90;;;;;;5034364;28;20108;-74
2021/05/18 00:28:48;;;;;;;0.30;0.10;;;9.70;99.90;;;;;;5040970;28;20245;-74
2021/05/18 00:31:14;;;;;;;1.33;0.20;;;9.70;99.90;;;;;;5025741;28;20094;-74
2021/05/18 00:33:42;;;;;;;1.90;0.30;;;9.70;99.90;;;;;;5028152;28;20078;-74
2021/05/18 00:36:08;;;;;;;0.20;0.17;;;9.70;99.90;;;;;;5026200;28;20074;-74
2021/05/18 00:38:34;;;;;;;0.60;0.20;;;9.80;99.90;;;;;;5028205;28;20128;-74
2021/05/18 00:41:00;;;;;;;0.50;0.20;;;9.80;99.90;;;;;;5026094;28;20629;-74
2021/05/18 00:43:26;;;;;;;2.00;0.28;;;9.80;99.90;;;;;;5031207;28;20086;-74
2021/05/18 00:45:52;;;;;;;0.57;0.10;;;9.80;99.90;;;;;;5030959;28;20080;-74
2021/05/18 00:48:19;;;;;;;1.67;0.10;;;9.80;99.90;;;;;;5043821;28;20553;-74
2021/05/18 00:50:52;;;;;;;2.10;0.10;;;9.80;99.90;;;;;;5029038;28;20130;-74
2021/05/18 00:53:19;;;;;;;0.57;0.30;;;9.80;99.90;;;;;;5028659;28;20077;-74
2021/05/18 01:01:20;;;;;;;0.63;0.40;;;9.80;99.90;;;;;;5030415;28;20113;-74
2021/05/18 01:03:47;;;;;;;2.65;0.35;;;9.80;99.90;;;;;;5030389;28;20074;-74
2021/05/18 01:06:18;;;;;;;0.40;0.10;;;9.70;99.90;;;;;;5029181;28;20711;-74
2021/05/18 01:08:45;;;;;;;1.02;0.20;;;9.70;99.90;;;;;;5027776;28;20163;-75
2021/05/18 01:11:11;;;;;;;0.32;0.10;;;9.80;99.90;;;;;;5029961;28;20085;-74
2021/05/18 01:13:38;;;;;;;0.73;0.15;;;9.70;99.90;;;;;;5043477;28;20606;-74
2021/05/18 01:16:05;;;;;;;0.45;0.15;;;9.70;99.90;;;;;;5028279;28;20099;-74
2021/05/18 01:18:43;;;;;;;0.52;0.10;;;9.80;99.90;;;;;;5021130;28;20493;-74
2021/05/18 01:21:10;;;;;;;0.20;0.10;;;9.70;99.90;;;;;;5031806;28;20078;-74
2021/05/18 01:23:37;;;;;;;0.40;0.05;;;9.80;99.90;;;;;;5027830;28;20121;-74
2021/05/18 01:26:03;;;;;;;0.38;0.17;;;9.70;99.90;;;;;;5030380;28;20153;-74
2021/05/18 01:28:29;;;;;;;0.10;0.10;;;9.70;99.90;;;;;;5029799;28;20081;-74
2021/05/18 01:30:56;;;;;;;0.63;0.20;;;9.70;99.90;;;;;;5028822;28;20184;-74
2021/05/18 01:33:22;;;;;;;0.38;0.10;;;9.80;99.90;;;;;;5028661;28;20085;-74
2021/05/18 01:35:48;;;;;;;0.65;0.10;;;9.70;99.90;;;;;;5026994;28;20077;-74
2021/05/18 01:38:18;;;;;;;0.55;0.10;;;9.80;99.90;;;;;;5029245;28;20089;-73
2021/05/18 01:43:14;;;;;;;1.05;0.20;;;9.70;99.90;;;;;;5030181;28;20580;-73
2021/05/18 01:45:42;;;;;;;0.55;0.20;;;9.70;99.90;;;;;;5028303;28;20078;-73
2021/05/18 01:48:13;;;;;;;0.85;0.10;;;9.70;99.90;;;;;;5029347;28;20157;-73
2021/05/18 01:50:42;;;;;;;0.40;0.13;;;9.60;99.90;;;;;;5026613;28;20082;-74
2021/05/18 01:53:08;;;;;;;0.30;0.10;;;9.60;99.90;;;;;;5028964;28;20621;-73
2021/05/18 01:55:39;;;;;;;0.00;0.00;;;9.60;99.90;;;;;;5026537;28;20086;-73
2021/05/18 01:58:05;;;;;;;0.30;0.10;;;9.70;99.90;;;;;;5028434;28;20076;-73
2021/05/18 02:00:34;;;;;;;0.10;0.03;;;9.60;99.90;;;;;;5045376;28;20066;-74
2021/05/18 02:03:00;;;;;;;0.40;0.10;;;9.70;99.90;;;;;;5029936;28;20152;-74
2021/05/18 02:05:29;;;;;;;1.48;0.13;;;9.70;99.90;;;;;;5028582;28;20077;-73
2021/05/18 02:07:56;;;;;;;0.10;0.00;;;9.70;99.90;;;;;;5029189;28;20143;-73
2021/05/18 02:10:23;;;;;;;0.20;0.10;;;9.70;99.90;;;;;;5029098;28;20170;-73
2021/05/18 02:12:49;;;;;;;0.25;0.10;;;9.70;99.90;;;;;;5029004;28;20176;-75
2021/05/18 02:26:19;;;;;;;0.10;0.00;;;9.80;99.90;;;;;;5042888;28;20077;-74
2021/05/18 02:28:45;;;;;;;0.38;0.10;;;9.80;99.90;;;;;;5047446;28;20101;-73
2021/05/18 02:31:11;;;;;;;1.00;0.10;;;9.70;99.90;;;;;;5048359;28;20127;-74
2021/05/18 02:33:37;;;;;;;0.20;0.17;;;9.70;99.90;;;;;;5030920;28;20066;-75
2021/05/18 02:36:04;;;;;;;0.30;0.10;;;9.80;99.90;;;;;;5030630;28;20073;-74
2021/05/18 02:38:30;;;;;;;2.35;0.17;;;9.70;99.90;;;;;;5031921;28;20077;-75
2021/05/18 02:40:55;;;;;;;0.22;0.10;;;9.80;99.90;;;;;;5040932;28;20217;-74
2021/05/18 02:43:24;;;;;;;1.77;0.10;;;9.80;99.90;;;;;;5051123;28;20090;-73
2021/05/18 02:51:05;;;;;;;0.63;0.10;;;9.70;99.90;;;;;;5027142;28;20108;-75
2021/05/18 02:53:31;;;;;;;0.10;0.10;;;9.80;99.90;;;;;;5028763;28;20089;-73
2021/05/18 02:56:03;;;;;;;0.30;0.05;;;9.70;99.90;;;;;;5027757;28;20204;-74
2021/05/18 02:58:31;;;;;;;0.20;0.10;;;9.70;99.90;;;;;;5027990;28;20522;-73
2021/05/18 03:00:57;;;;;;;0.65;0.10;;;9.70;99.90;;;;;;5026831;28;20101;-74
2021/05/18 03:03:23;;;;;;;1.95;0.17;;;9.70;99.90;;;;;;5026926;28;20125;-74
2021/05/18 03:05:48;;;;;;;0.50;0.10;;;9.70;99.90;;;;;;5027324;28;20121;-73
2021/05/18 03:08:14;;;;;;;0.77;0.10;;;9.70;99.90;;;;;;5027547;28;20077;-74
2021/05/18 03:10:40;;;;;;;0.95;0.20;;;9.70;99.90;;;;;;5027837;28;20082;-74
2021/05/18 03:13:06;;;;;;;1.90;0.10;;;9.70;99.90;;;;;;5027941;28;20116;-73
2021/05/18 03:15:33;;;;;;;4.38;0.10;;;9.70;99.90;;;;;;5026077;28;20085;-73
2021/05/18 03:17:59;;;;;;;0.10;0.10;;;9.70;99.90;;;;;;5025041;28;20167;-74
2021/05/18 03:20:25;;;;;;;0.10;0.00;;;9.80;99.90;;;;;;5028026;28;20914;-74
2021/05/18 03:22:52;;;;;;;0.20;0.15;;;9.70;99.90;;;;;;5028605;28;20213;-73
2021/05/18 03:25:18;;;;;;;0.35;0.20;;;9.70;99.90;;;;;;5028914;28;20162;-73
2021/05/18 03:27:44;;;;;;;0.00;0.00;;;9.70;99.90;;;;;;5041046;28;20082;-73
2021/05/18 03:35:40;;;;;;;1.15;0.13;;;9.70;99.90;;;;;;5026716;28;20088;-74
2021/05/18 03:38:16;;;;;;;2.95;0.10;;;9.80;99.90;;;;;;5027101;28;20105;-74
2021/05/18 03:40:47;;;;;;;1.63;0.20;;;9.70;99.90;;;;;;5016439;28;20116;-74
2021/05/18 03:54:21;;;;;;;0.47;0.13;;;9.70;99.90;;;;;;5028074;28;20112;-74
2021/05/18 04:04:55;;;;;;;1.00;0.38;;;9.80;99.90;;;;;;5027308;28;20454;-74
2021/05/18 04:10:30;;;;;;;0.55;0.10;;;9.80;99.90;;;;;;5027668;28;20081;-74
2021/05/18 04:18:24;;;;;;;0.43;0.17;;;9.90;99.90;;;;;;5027533;28;20349;-74
2021/05/18 04:23:28;;;;;;;0.10;0.10;;;9.90;99.90;;;;;;5031974;28;20439;-73
2021/05/18 04:42:57;;;;;;;0.50;0.20;;;9.90;99.90;;;;;;5031380;28;20098;-74
2021/05/18 04:51:27;;;;;;;0.65;0.10;;;9.90;99.90;;;;;;5026404;28;20104;-74
2021/05/18 04:59:04;;;;;;;0.43;0.20;;;9.90;99.90;;;;;;5031699;28;20121;-74
2021/05/18 05:06:45;;;;;;;0.30;0.15;;;10.00;99.90;;;;;;5024616;28;20072;-75
2021/05/18 05:09:27;;;;;;;0.57;0.10;;;10.00;99.90;;;;;;5023801;28;20147;-75
2021/05/18 05:14:37;;;;;;;0.30;0.10;;;10.10;99.90;;;;;;5025712;28;20625;-77
2021/05/18 05:17:03;;;;;;;0.10;0.10;;;10.10;99.90;;;;;;5029819;28;20094;-75
2021/05/18 05:19:29;;;;;;;0.40;0.10;;;10.10;99.90;;;;;;5026449;28;20082;-75
2021/05/18 05:21:56;;;;;;;0.17;0.10;;;10.10;99.90;;;;;;5034778;28;20129;-74
2021/05/18 05:24:22;;;;;;;2.28;0.30;;;10.10;99.90;;;;;;5027923;28;20102;-75
2021/05/18 05:26:49;;;;;;;1.33;0.30;;;10.10;99.90;;;;;;5045020;28;20119;-75
2021/05/18 05:29:16;;;;;;;0.30;0.08;;;10.10;99.90;;;;;;5038034;28;20132;-75
2021/05/18 05:31:42;;;;;;;0.47;0.20;;;10.10;99.90;;;;;;5034881;28;20181;-75
2021/05/18 05:34:08;;;;;;;0.47;0.20;;;10.10;99.90;;;;;;5039027;28;20074;-76
2021/05/18 05:36:34;;;;;;;0.68;0.28;;;10.20;99.90;;;;;;5029453;28;20475;-76
2021/05/18 05:39:04;;;;;;;0.80;0.35;;;10.20;99.90;;;;;;5033206;28;20113;-75
2021/05/18 05:41:29;;;;;;;1.40;0.65;;;10.20;99.90;;;;;;5030611;28;20163;-76
2021/05/18 05:43:55;;;;;;;1.65;0.20;;;10.20;99.90;;;;;;5030149;28;20526;-75
2021/05/18 05:46:21;;;;;;;0.35;0.10;;;10.20;99.90;;;;;;5028593;28;20078;-75
2021/05/18 05:48:52;;;;;;;0.55;0.20;;;10.20;99.90;;;;;;5032061;28;20156;-75
2021/05/18 05:51:23;;;;;;;0.73;0.10;;;10.30;99.90;;;;;;5023976;28;20136;-76
2021/05/18 05:53:49;;;;;;;0.10;0.05;;;10.30;99.90;;;;;;5032250;28;20078;-76
2021/05/18 05:56:15;;;;;;;0.60;0.60;;;10.30;99.90;;;;;;5031557;28;20085;-75
2021/05/18 05:58:41;;;;;;;2.28;0.20;;;10.40;99.90;;;;;;5046982;28;20173;-75
2021/05/18 06:01:06;;;;;;;1.30;0.20;;;10.40;99.90;;;;;;5030720;28;20177;-75
2021/05/18 06:03:33;;;;;;;0.80;0.30;;;10.30;99.90;;;;;;5030706;28;20101;-75
2021/05/18 06:05:58;;;;;;;0.05;0.00;;;10.30;99.90;;;;;;5036255;28;20070;-76
2021/05/18 06:08:24;;;;;;;0.35;0.10;;;10.30;99.90;;;;;;5027854;28;20100;-76
2021/05/18 06:10:54;;;;;;;1.30;0.35;;;10.20;99.90;;;;;;5033545;28;20215;-75
2021/05/18 06:35:04;;;;;;;0.22;0.20;;;10.10;99.90;;;;;;5029667;28;20092;-76
2021/05/18 06:37:48;;;;;;;0.52;0.17;;;10.10;99.90;;;;;;5028586;28;20101;-75
2021/05/18 06:48:08;;;;;;;0.75;0.20;;;10.30;99.90;;;;;;5036617;28;20132;-74
2021/05/18 06:50:33;;;;;;;0.40;0.10;;;10.30;99.90;;;;;;5021175;28;20478;-76
2021/05/18 06:52:59;;;;;;;0.40;0.10;;;10.50;99.90;;;;;;5023097;28;20100;-75
2021/05/18 06:55:29;;;;;;;1.13;0.20;;;10.40;99.90;;;;;;5033008;28;20082;-75
2021/05/18 06:58:03;;;;;;;0.40;0.20;;;10.30;99.90;;;;;;5025344;28;20077;-75
2021/05/18 07:00:29;;;;;;;0.55;0.30;;;10.30;99.90;;;;;;5027118;28;20488;-75
2021/05/18 07:02:57;;;;;;;1.23;0.50;;;10.30;99.90;;;;;;5027519;28;20123;-78
2021/05/18 07:10:44;;;;;;;0.20;0.17;;;10.40;99.90;;;;;;5033391;28;20069;-76
2021/05/18 07:13:11;;;;;;;1.38;0.35;;;10.50;99.90;;;;;;5035176;28;20133;-75
2021/05/18 07:15:38;;;;;;;0.82;0.20;;;10.50;99.90;;;;;;5037645;28;20074;-74
2021/05/18 07:18:05;;;;;;;0.88;0.40;;;10.60;99.90;;;;;;5028257;28;20104;-75
2021/05/18 07:20:31;;;;;;;0.17;0.17;;;10.70;99.90;;;;;;5024575;28;20082;-74
2021/05/18 07:22:59;;;;;;;1.52;0.22;;;10.80;99.90;;;;;;5028432;28;20094;-74
2021/05/18 07:25:25;;;;;;;0.93;0.30;;;11.00;99.90;;;;;;5033959;28;20070;-75
2021/05/18 07:27:51;;;;;;;0.20;0.20;;;11.10;99.90;;;;;;5038047;28;20125;-75
2021/05/18 07:30:17;;;;;;;0.20;0.10;;;11.10;99.90;;;;;;5026319;28;20109;-75
2021/05/18 07:32:43;;;;;;;0.20;0.10;;;11.20;99.90;;;;;;5027519;28;20116;-75
2021/05/18 07:35:11;;;;;;;0.45;0.10;;;11.40;99.90;;;;;;5027153;28;20441;-75
2021/05/18 07:37:37;;;;;;;0.45;0.25;;;11.50;99.90;;;;;;5026664;28;20078;-75
2021/05/18 07:40:04;;;;;;;1.95;0.30;;;11.60;99.90;;;;;;5026522;28;20102;-75
2021/05/18 07:42:29;;;;;;;1.48;0.20;;;11.60;99.90;;;;;;5026646;28;20097;-75
2021/05/18 07:44:55;;;;;;;0.60;0.20;;;11.50;99.90;;;;;;5027385;28;20079;-75
2021/05/18 07:47:23;;;;;;;0.40;0.25;;;11.50;99.90;;;;;;5035931;28;20097;-76
2021/05/18 07:49:50;;;;;;;0.47;0.20;;;11.40;99.90;;;;;;5023427;28;20074;-75
2021/05/18 08:05:26;;;;;;;0.40;0.20;;;11.30;99.90;;;;;;5028539;28;20074;-73
2021/05/18 08:07:52;;;;;;;1.83;0.20;;;11.40;99.90;;;;;;5025956;28;20077;-75
2021/05/18 08:10:21;;;;;;;0.65;0.10;;;11.40;99.90;;;;;;5028619;28;20082;-75
2021/05/18 08:12:47;;;;;;;0.40;0.30;;;11.50;99.90;;;;;;5028135;28;20086;-75
2021/05/18 10:37:29;;;;;;;0.40;0.13;;;10.30;99.90;;;;;;5046692;28;20123;-78
2021/05/18 10:40:24;;;;;;;0.40;0.15;;;10.60;99.90;;;;;;5033556;28;20074;-76
2021/05/18 10:43:21;;;;;;;0.00;0.00;;;10.60;99.90;;;;;;5038954;28;20473;-77
2021/05/18 10:45:57;;;;;;;0.30;0.00;;;10.70;99.90;;;;;;5026553;28;20108;-76
2021/05/18 10:48:31;;;;;;;0.43;0.10;;;10.80;99.90;;;;;;5028271;28;20135;-75
2021/05/18 10:50:58;;;;;;;;;;;10.90;99.90;;;;;;5031215;28;20112;-76
2021/05/18 10:53:25;;;;;;;0.60;0.25;;;11.00;99.90;;;;;;5047722;28;19958;-80
2021/05/18 10:56:11;;;;;;;1.10;0.60;;;11.20;99.90;;;;;;5048953;28;20143;-82
2021/05/18 10:58:38;;;;;;;0.63;0.30;;;11.20;99.90;;;;;;5051635;28;20242;-80
2021/05/18 11:01:05;;;;;;;0.85;0.20;;;11.10;99.90;;;;;;5026586;28;20147;-76
2021/05/18 11:03:34;;;;;;;0.50;0.20;;;11.40;99.90;;;;;;5029521;28;20550;-76
2021/05/18 11:06:08;;;;;;;0.30;0.20;;;11.50;99.90;;;;;;5026913;28;20078;-76
2021/05/18 11:08:35;;;;;;;1.77;0.10;;;11.80;99.90;;;;;;5041329;28;20534;-76
2021/05/18 11:11:01;;;;;;;0.45;0.10;;;12.10;99.90;;;;;;5029602;28;20173;-76
2021/05/18 11:13:27;;;;;;;1.58;0.30;;;12.10;99.90;;;;;;5033913;28;20506;-76
2021/05/18 11:15:53;;;;;;;0.43;0.08;;;12.30;99.90;;;;;;5039404;28;20135;-75
2021/05/18 11:18:18;;;;;;;0.15;0.10;;;12.50;99.90;;;;;;5033213;28;20094;-75
2021/05/18 11:26:04;;;;;;;0.32;0.00;;;12.40;99.90;;;;;;5031591;28;20143;-76
2021/05/18 11:28:33;;;;;;;0.10;0.00;;;12.70;99.90;;;;;;5041192;28;20600;-76
2021/05/18 11:31:19;;;;;;;0.30;0.10;;;12.80;99.90;;;;;;5030490;28;20089;-77
2021/05/18 11:33:47;;;;;;;0.55;0.00;;;12.90;99.90;;;;;;5030354;28;20074;-76
2021/05/18 11:36:18;;;;;;;0.10;0.00;;;12.90;99.90;;;;;;5024643;28;20087;-76
2021/05/18 11:38:51;;;;;;;0.03;0.00;;;12.80;99.90;;;;;;5029557;28;20090;-80
2021/05/18 11:41:20;;;;;;;0.15;0.10;;;12.60;99.90;;;;;;5030004;28;20096;-77
2021/05/18 11:43:49;;;;;;;0.35;0.10;;;12.60;99.90;;;;;;5037048;28;20747;-76
2021/05/18 11:46:15;;;;;;;0.80;0.05;;;12.50;99.90;;;;;;5027883;28;20063;-76
2021/05/18 11:48:52;;;;;;;1.02;0.10;;;12.50;99.90;;;;;;5024622;28;20123;-77
2021/05/18 11:51:17;;;;;;;0.57;0.10;;;12.50;99.90;;;;;;5030670;28;20085;-77
2021/05/18 11:53:48;;;;;;;0.70;0.10;;;12.40;99.90;;;;;;5019438;28;20160;-77
2021/05/18 11:56:28;;;;;;;0.22;0.10;;;12.40;99.90;;;;;;5015087;28;20092;-76
2021/05/18 11:59:21;;;;;;;0.30;0.17;;;12.50;99.90;;;;;;5035492;28;20083;-78
2021/05/18 12:02:01;;;;;;;1.65;0.10;;;12.60;99.90;;;;;;5009271;28;20102;-77
2021/05/18 12:04:29;;;;;;;0.43;0.20;;;12.70;99.90;;;;;;5027967;28;20161;-77
2021/05/18 12:07:05;;;;;;;0.10;0.00;;;12.60;99.90;;;;;;5031164;28;20094;-78
2021/05/18 12:09:33;;;;;;;0.22;0.10;;;11.80;99.90;;;;;;5027764;28;20128;-78
2021/05/18 12:12:04;;;;;;;0.32;0.00;;;11.40;99.90;;;;;;5042222;28;20190;-76
2021/05/18 12:14:31;;;;;;;0.00;0.00;;;11.30;99.90;;;;;;5023739;28;20093;-74
2021/05/18 12:16:58;;;;;;;0.20;0.00;;;11.40;99.90;;;;;;5028428;28;20523;-78
2021/05/18 12:19:27;;;;;;;0.77;0.00;;;11.40;99.90;;;;;;5027017;28;20789;-78
2021/05/18 12:21:55;;;;;;;0.40;0.30;;;11.60;99.90;;;;;;5028960;28;20090;-76
2021/05/18 12:24:26;;;;;;;0.45;0.00;;;11.60;99.90;;;;;;5034207;28;20066;-76
2021/05/18 12:27:11;;;;;;;0.25;0.15;;;11.90;99.90;;;;;;5028118;28;20521;-75
2021/05/18 12:29:55;;;;;;;0.00;0.00;;;11.90;99.90;;;;;;5029117;28;20428;-76
2021/05/18 12:32:28;;;;;;;0.00;0.00;;;12.10;99.90;;;;;;5027634;28;20101;-78
2021/05/18 12:35:14;;;;;;;0.30;0.00;;;12.40;99.90;;;;;;5044364;28;20105;-76
2021/05/18 12:37:48;;;;;;;0.00;0.00;;;12.50;99.90;;;;;;5041520;28;20082;-77
2021/05/18 12:40:33;;;;;;;0.22;0.05;;;12.60;99.90;;;;;;5023318;28;20078;-77
2021/05/18 12:43:12;;;;;;;;;;;12.50;99.90;;;;;;5031144;28;20581;-76
2021/05/18 12:45:39;;;;;;;0.00;0.00;;;12.50;99.90;;;;;;5034473;28;19969;-76
2021/05/18 12:48:05;;;;;;;1.85;0.10;;;12.70;99.90;;;;;;5036757;28;20066;-75
2021/05/18 12:50:40;;;;;;;0.00;0.00;;;12.70;99.90;;;;;;5032038;28;20490;-77
2021/05/18 12:53:20;;;;;;;0.00;0.00;;;13.10;99.90;;;;;;5029992;28;20073;-77
2021/05/18 12:55:49;;;;;;;1.33;0.15;;;13.30;99.90;;;;;;5021704;28;20196;-76
2021/05/18 12:58:30;;;;;;;0.30;0.20;;;13.20;99.90;;;;;;5035865;28;20077;-78
2021/05/18 13:01:15;;;;;;;0.28;0.00;;;13.00;99.90;;;;;;5023404;28;20423;-77
2021/05/18 13:03:43;;;;;;;1.05;0.32;;;12.90;99.90;;;;;;5042663;28;20143;-78
2021/05/18 13:06:09;;;;;;;0.93;0.00;;;13.10;99.90;;;;;;5032289;28;20144;-79
2021/05/18 13:08:37;;;;;;;0.50;0.10;;;13.20;99.90;;;;;;5034184;28;20081;-76
2021/05/18 13:16:21;;;;;;;1.23;0.38;;;13.40;99.90;;;;;;5030934;22;20130;-75
2021/05/18 13:19:00;;;;;;;2.00;0.20;;;13.60;99.90;;;;;;5005863;28;20078;-76
2021/05/18 13:21:36;;;;;;;0.63;0.10;;;13.60;99.90;;;;;;5011699;28;20423;-73
2021/05/18 13:26:34;;;;;;;0.45;0.10;;;13.60;99.90;;;;;;5027801;28;20075;-75
2021/05/18 13:29:15;;;;;;;1.17;0.13;;;13.60;99.90;;;;;;5010134;28;20618;-79
2021/05/18 13:31:41;;;;;;;1.80;0.35;;;13.60;99.90;;;;;;5012891;28;20135;-75
2021/05/18 13:34:07;;;;;;;0.20;0.10;;;13.60;99.90;;;;;;5031361;28;20086;-75
2021/05/18 13:36:34;;;;;;;0.40;0.30;;;13.70;99.90;;;;;;5031114;28;20078;-75
2021/05/18 13:39:06;;;;;;;1.00;0.13;;;13.70;99.90;;;;;;5028157;28;20571;-74
2021/05/18 13:41:31;;;;;;;0.70;0.10;;;13.90;99.90;;;;;;5028722;28;20070;-74
2021/05/18 13:43:57;;;;;;;0.55;0.15;;;13.90;99.90;;;;;;5029137;28;20172;-75
2021/05/18 13:46:29;;;;;;;0.50;0.10;;;13.80;99.90;;;;;;5027810;28;20165;-74
2021/05/18 13:48:55;;;;;;;0.20;0.10;;;13.80;99.90;;;;;;5010875;28;20197;-75
2021/05/18 13:51:21;;;;;;;1.85;0.95;;;13.80;99.90;;;;;;5024746;28;20164;-75
2021/05/18 13:53:47;;;;;;;23.60;2.63;;;13.90;99.90;;;;;;5031595;28;20085;-77
2021/05/18 13:56:13;;;;;;;7.75;1.27;;;13.50;99.90;;;;;;5027641;28;20921;-74
2021/05/18 13:58:39;;;;;;;3.65;0.30;;;13.70;99.90;;;;;;5014673;28;20810;-77
2021/05/18 14:01:06;;;;;;;9.48;0.68;;;13.80;99.90;;;;;;5024698;28;20216;-76
2021/05/18 14:03:32;;;;;;;5.63;1.10;;;13.80;99.90;;;;;;5031817;28;20082;-78
2021/05/18 14:06:01;;;;;;;6.70;1.10;;;13.80;99.90;;;;;;5018159;28;20109;-76
2021/05/18 14:08:31;;;;;;;14.80;4.10;;;13.90;99.90;;;;;;5032059;28;20081;-78
2021/05/18 14:11:08;;;;;;;5.65;0.60;;;14.00;99.90;;;;;;5035770;28;20077;-79
2021/05/18 14:13:37;;;;;;;29.30;2.83;;;13.90;99.90;;;;;;5033180;28;20087;-77
2021/05/18 14:16:06;;;;;;;3.25;0.70;;;13.90;99.90;;;;;;5009996;28;20090;-78
2021/05/18 14:18:33;;;;;;;8.32;1.38;;;13.90;99.90;;;;;;5032922;28;20077;-84
2021/05/18 14:21:03;;;;;;;4.60;0.70;;;14.20;99.90;;;;;;5020364;28;20565;-81
2021/05/18 14:23:38;;;;;;;13.70;5.18;;;14.20;99.90;;;;;;5034665;28;20167;-81
2021/05/18 14:26:03;;;;;;;82.50;38.25;;;14.20;99.90;;;;;;5030715;28;20065;-77
2021/05/18 14:28:31;;;;;;;1.23;0.77;;;14.10;99.90;;;;;;5030128;28;20078;-78
2021/05/18 14:30:57;;;;;;;1.95;0.30;;;14.20;99.90;;;;;;5006288;28;20074;-79
2021/05/18 14:33:22;;;;;;;1.45;0.20;;;14.00;99.90;;;;;;5029844;28;20556;-78
2021/05/18 14:35:48;;;;;;;1.08;0.20;;;13.80;99.90;;;;;;5012683;28;20090;-78
2021/05/18 14:38:19;;;;;;;0.20;0.10;;;13.70;99.90;;;;;;5031746;28;20076;-78
2021/05/18 14:42:48;;;;;;;3.33;0.30;;;13.70;99.90;;;;;;5029707;28;20476;-77
2021/05/18 14:44:01;;;;;;;0.77;0.30;;;13.80;99.90;;;;;;5028798;28;20093;-78
2021/05/18 14:57:02;;;;;;;1.38;0.20;;;13.50;99.90;;;;;;5031403;28;20074;-77
2021/05/18 14:59:28;;;;;;;0.80;0.10;;;13.10;99.90;;;;;;5024910;28;20156;-75
2021/05/18 15:01:53;;;;;;;1.70;0.40;;;12.70;99.90;;;;;;5023408;28;20094;-75
2021/05/18 15:04:19;;;;;;;2.70;0.20;;;12.30;99.90;;;;;;5011516;28;20101;-75
2021/05/18 15:06:45;;;;;;;12.65;2.00;;;12.30;99.90;;;;;;5024057;28;20077;-76
2021/05/18 15:09:10;;;;;;;13.27;6.97;;;12.20;99.90;;;;;;5029513;28;20147;-75
2021/05/18 15:11:36;;;;;;;3.42;1.48;;;12.20;99.90;;;;;;5022515;28;20085;-75
2021/05/18 15:14:04;;;;;;;1.05;0.60;;;12.10;99.90;;;;;;5028802;28;20180;-74
2021/05/18 15:16:29;;;;;;;2.47;0.73;;;12.00;99.90;;;;;;5028880;28;21083;-75
2021/05/18 15:19:03;;;;;;;3.63;0.82;;;12.00;99.90;;;;;;5011777;28;20098;-75
2021/05/18 15:21:29;;;;;;;5.93;0.70;;;12.00;99.90;;;;;;5027516;28;20082;-74
2021/05/18 15:23:54;;;;;;;1.80;0.73;;;11.90;99.90;;;;;;5005739;28;20113;-75
2021/05/18 15:26:20;;;;;;;1.13;0.30;;;11.80;99.90;;;;;;5019380;28;20085;-75
2021/05/18 15:28:45;;;;;;;0.40;0.20;;;11.70;99.90;;;;;;5030090;28;20106;-75
2021/05/18 15:31:11;;;;;;;0.65;0.22;;;11.70;99.90;;;;;;5028864;28;20078;-75
2021/05/18 15:33:37;;;;;;;0.30;0.20;;;11.70;99.90;;;;;;5030006;28;20136;-75
2021/05/18 15:36:04;;;;;;;1.00;0.43;;;11.60;99.90;;;;;;5029111;28;20073;-75
2021/05/18 15:38:37;;;;;;;2.25;1.50;;;11.70;99.90;;;;;;5026731;28;20102;-76
2021/05/18 15:41:03;;;;;;;7.30;2.90;;;11.70;99.90;;;;;;5009882;28;20152;-76
2021/05/18 15:43:29;;;;;;;11.85;8.27;;;11.80;99.90;;;;;;5028608;28;20082;-75
2021/05/18 15:45:54;;;;;;;3.40;2.00;;;11.90;99.90;;;;;;5010158;28;20089;-76
2021/05/18 15:48:20;;;;;;;1.50;1.00;;;11.90;99.90;;;;;;5026245;28;20069;-76
2021/05/18 15:50:45;;;;;;;0.73;0.70;;;11.90;99.90;;;;;;5008804;28;20731;-75
2021/05/18 15:53:12;;;;;;;7.50;6.80;;;11.90;99.90;;;;;;5028267;28;20690;-76
2021/05/18 15:55:38;;;;;;;0.80;0.50;;;12.00;99.90;;;;;;5018373;28;20740;-75
2021/05/18 15:58:04;;;;;;;2.10;1.60;;;12.00;99.90;;;;;;5029695;28;20092;-75
2021/05/18 16:00:29;;;;;;;3.53;2.78;;;12.10;99.90;;;;;;5020899;28;20088;-75
2021/05/18 16:02:55;;;;;;;1.00;0.73;;;12.20;99.90;;;;;;5011189;28;20105;-75
2021/05/18 16:05:20;;;;;;;0.57;0.17;;;12.30;99.90;;;;;;5029419;28;20086;-76
2021/05/18 16:07:53;;;;;;;1.55;1.05;;;12.30;99.90;;;;;;5026655;28;20104;-76
2021/05/18 16:10:18;;;;;;;3.40;1.65;;;12.40;99.90;;;;;;5027682;28;20066;-76
2021/05/18 16:12:44;;;;;;;1.98;0.75;;;12.40;99.90;;;;;;5007917;28;20553;-75
2021/05/18 16:15:10;;;;;;;1.13;0.20;;;12.50;99.90;;;;;;5024746;28;20109;-76
2021/05/18 16:17:35;;;;;;;0.30;0.20;;;12.50;99.90;;;;;;5010532;28;20074;-76
2021/05/18 16:20:01;;;;;;;5.10;4.57;;;12.50;99.90;;;;;;5011630;28;20074;-76
2021/05/18 16:22:27;;;;;;;1.55;0.50;;;12.50;99.90;;;;;;5029220;28;20085;-76
2021/05/18 16:24:52;;;;;;;1.33;0.28;;;12.40;99.90;;;;;;5029860;28;20093;-78
2021/05/18 16:27:18;;;;;;;1.23;0.88;;;12.50;99.90;;;;;;5028612;28;20541;-76
2021/05/18 16:29:44;;;;;;;3.80;2.75;;;12.70;99.90;;;;;;5030104;28;20129;-76
2021/05/18 16:32:11;;;;;;;0.40;0.20;;;12.60;99.90;;;;;;5015787;28;20088;-75
2021/05/18 16:34:37;;;;;;;0.20;0.13;;;12.70;99.90;;;;;;5027472;28;20105;-76
2021/05/18 16:37:03;;;;;;;0.32;0.15;;;12.70;99.90;;;;;;5010334;28;20160;-75
2021/05/18 16:39:28;;;;;;;0.35;0.10;;;12.60;99.90;;;;;;5029051;28;20239;-76
2021/05/18 16:41:55;;;;;;;1.33;0.25;;;12.50;99.90;;;;;;5027839;28;20151;-75
2021/05/18 16:44:22;;;;;;;0.40;0.20;;;12.50;99.90;;;;;;5009936;28;20090;-76
2021/05/18 16:46:49;;;;;;;0.10;0.03;;;12.50;99.90;;;;;;5026500;28;20085;-76
2021/05/18 16:49:15;;;;;;;4.18;0.10;;;12.50;99.90;;;;;;5016135;28;20073;-75
2021/05/18 16:51:41;;;;;;;0.45;0.10;;;12.40;99.90;;;;;;5001423;28;20578;-75
2021/05/18 16:54:09;;;;;;;0.00;0.00;;;12.30;99.90;;;;;;5029624;28;20093;-78
2021/05/18 16:56:35;;;;;;;0.30;0.10;;;12.30;99.90;;;;;;5024503;28;20527;-79
2021/05/18 16:59:02;;;;;;;0.68;0.10;;;12.30;99.90;;;;;;5027502;28;20555;-74
2021/05/18 17:01:27;;;;;;;0.80;0.20;;;12.30;99.90;;;;;;5029468;28;20770;-74
2021/05/18 17:03:53;;;;;;;2.42;0.28;;;12.30;99.90;;;;;;5011387;28;20093;-75
2021/05/18 17:06:19;;;;;;;0.52;0.25;;;12.40;99.90;;;;;;5019352;28;20096;-74
2021/05/18 17:08:45;;;;;;;0.57;0.10;;;12.40;99.90;;;;;;5011397;28;20078;-74
2021/05/18 17:11:11;;;;;;;0.63;0.28;;;12.40;99.90;;;;;;5021337;28;20549;-74
2021/05/18 17:13:37;;;;;;;0.20;0.10;;;12.40;99.90;;;;;;5014124;28;20785;-74
2021/05/18 17:16:04;;;;;;;0.30;0.10;;;12.40;99.90;;;;;;5008666;28;20090;-74
2021/05/18 17:18:30;;;;;;;0.77;0.10;;;12.40;99.90;;;;;;5008491;28;20079;-75
2021/05/18 17:20:56;;;;;;;0.20;0.20;;;12.30;99.90;;;;;;5023038;28;20461;-74
2021/05/18 17:23:22;;;;;;;1.20;0.88;;;12.30;99.90;;;;;;5023203;28;20195;-75
2021/05/18 17:25:48;;;;;;;1.20;0.20;;;12.20;99.90;;;;;;5022767;28;20601;-73
2021/05/18 17:28:15;;;;;;;0.22;0.20;;;12.20;99.90;;;;;;5030323;28;20074;-74
2021/05/18 17:30:41;;;;;;;0.30;0.10;;;12.20;99.90;;;;;;5011752;28;20078;-75
2021/05/18 17:33:10;;;;;;;1.15;0.10;;;12.20;99.90;;;;;;5012333;28;20086;-73
2021/05/18 17:35:36;;;;;;;0.75;0.47;;;12.10;99.90;;;;;;5018851;28;20105;-73
2021/05/18 17:38:05;;;;;;;1.90;0.15;;;12.10;99.90;;;;;;5012696;28;20082;-74
2021/05/18 17:40:31;;;;;;;0.32;0.10;;;12.10;99.90;;;;;;5027498;28;20074;-74
2021/05/18 17:42:58;;;;;;;1.40;0.10;;;12.10;99.90;;;;;;5026428;28;20097;-74
2021/05/18 17:45:23;;;;;;;1.23;0.20;;;12.10;99.90;;;;;;5008948;28;20094;-74
2021/05/18 17:47:49;;;;;;;0.52;0.10;;;12.10;99.90;;;;;;5005897;28;20082;-76
2021/05/18 17:50:16;;;;;;;1.95;0.20;;;12.10;99.90;;;;;;5029380;28;20078;-77
2021/05/18 17:52:42;;;;;;;0.35;0.20;;;12.10;99.90;;;;;;5029061;28;20212;-75
2021/05/18 17:55:10;;;;;;;0.88;0.30;;;12.20;99.90;;;;;;5024594;28;20144;-76
2021/05/18 17:57:36;;;;;;;1.00;0.50;;;12.20;99.90;;;;;;5028473;28;20168;-75
2021/05/18 18:00:05;;;;;;;0.60;0.45;;;12.30;99.90;;;;;;5012224;28;20220;-74
2021/05/18 18:02:31;;;;;;;0.93;0.50;;;12.30;99.90;;;;;;5033453;28;20081;-74
2021/05/18 18:04:57;;;;;;;1.05;0.65;;;12.20;99.90;;;;;;5031518;28;20483;-74
2021/05/18 18:07:22;;;;;;;1.15;0.60;;;12.20;99.90;;;;;;5027808;28;20074;-74
2021/05/18 18:09:48;;;;;;;0.82;0.60;;;12.10;99.90;;;;;;5018106;28;20089;-75
2021/05/18 18:12:13;;;;;;;0.65;0.40;;;12.20;99.90;;;;;;5028550;28;20086;-74